createdAt,value
2023-04-09T00:00:53.624Z,54.56
2023-04-09T00:01:53.613Z,54.33
2023-04-09T00:02:53.692Z,54.64
2023-04-09T00:03:53.603Z,54.64
2023-04-09T00:04:53.544Z,55.01
2023-04-09T00:05:53.560Z,56.41
2023-04-09T00:06:53.580Z,54.44
2023-04-09T00:07:53.529Z,54.41
2023-04-09T00:08:53.792Z,54.16
2023-04-09T00:09:53.527Z,54.03
2023-04-09T00:10:53.513Z,54.03
2023-04-09T00:11:53.505Z,55.53
2023-04-09T00:12:53.542Z,53.59
2023-04-09T00:13:53.481Z,53.55
2023-04-09T00:14:53.491Z,53.35
2023-04-09T00:15:53.507Z,53.30
2023-04-09T00:16:53.478Z,53.79
2023-04-09T00:17:53.476Z,53.85
2023-04-09T00:18:54.039Z,54.31
2023-04-09T00:19:53.445Z,54.04
2023-04-09T00:20:53.422Z,53.81
2023-04-09T00:21:53.439Z,54.91
2023-04-09T00:22:53.424Z,53.79
2023-04-09T00:23:53.416Z,53.99
2023-04-09T00:24:53.444Z,54.07
2023-04-09T00:25:53.430Z,53.79
2023-04-09T00:26:53.424Z,53.74
2023-04-09T00:27:53.401Z,53.90
2023-04-09T00:28:53.540Z,54.05
2023-04-09T00:29:53.369Z,54.01
2023-04-09T00:30:53.403Z,53.84
2023-04-09T00:31:53.421Z,53.60
2023-04-09T00:32:53.387Z,53.74
2023-04-09T00:33:53.366Z,53.63
2023-04-09T00:34:53.345Z,53.98
2023-04-09T00:35:53.362Z,54.06
2023-04-09T00:36:53.416Z,53.51
2023-04-09T00:37:53.345Z,54.05
2023-04-09T00:38:53.529Z,54.43
2023-04-09T00:39:53.420Z,54.12
2023-04-09T00:40:53.348Z,53.88
2023-04-09T00:41:53.303Z,53.86
2023-04-09T00:42:53.344Z,54.09
2023-04-09T00:43:53.299Z,53.89
2023-04-09T00:44:53.318Z,54.04
2023-04-09T00:45:53.324Z,53.89
2023-04-09T00:46:53.245Z,54.11
2023-04-09T00:47:53.421Z,54.14
2023-04-09T00:48:53.877Z,54.10
2023-04-09T00:49:53.225Z,53.89
2023-04-09T00:50:53.223Z,54.43
2023-04-09T00:51:53.223Z,54.36
2023-04-09T00:52:53.225Z,53.79
2023-04-09T00:53:53.209Z,54.01
2023-04-09T00:54:53.227Z,54.12
2023-04-09T00:55:53.193Z,53.92
2023-04-09T00:56:53.182Z,53.90
2023-04-09T00:57:53.165Z,54.89
2023-04-09T00:58:53.372Z,56.21
2023-04-09T00:59:53.161Z,54.58
2023-04-09T01:00:53.186Z,55.82
2023-04-09T01:01:53.222Z,55.17
2023-04-09T01:02:53.259Z,56.19
2023-04-09T01:03:53.161Z,53.95
2023-04-09T01:04:53.124Z,54.26
2023-04-09T01:05:53.124Z,55.47
2023-04-09T01:06:53.162Z,55.86
2023-04-09T01:07:53.100Z,55.30
2023-04-09T01:08:53.230Z,54.16
2023-04-09T01:09:53.078Z,53.99
2023-04-09T01:10:53.081Z,54.50
2023-04-09T01:11:53.086Z,54.05
2023-04-09T01:12:53.107Z,54.13
2023-04-09T01:13:53.059Z,55.76
2023-04-09T01:14:53.060Z,54.34
2023-04-09T01:15:53.058Z,54.19
2023-04-09T01:16:53.156Z,54.25
2023-04-09T01:17:53.242Z,54.31
2023-04-09T01:18:53.192Z,54.40
2023-04-09T01:19:53.019Z,54.48
2023-04-09T01:20:53.020Z,54.42
2023-04-09T01:21:53.011Z,54.19
2023-04-09T01:22:53.002Z,54.36
2023-04-09T01:23:53.077Z,54.39
2023-04-09T01:24:53.038Z,53.93
2023-04-09T01:25:52.981Z,53.92
2023-04-09T01:26:52.983Z,54.17
2023-04-09T01:27:52.961Z,54.32
2023-04-09T01:28:53.294Z,54.27
2023-04-09T01:29:53.000Z,54.35
2023-04-09T01:30:53.016Z,54.13
2023-04-09T01:31:52.939Z,54.15
2023-04-09T01:32:53.011Z,54.21
2023-04-09T01:33:52.916Z,54.30
2023-04-09T01:34:52.922Z,54.48
2023-04-09T01:35:52.931Z,54.36
2023-04-09T01:36:52.937Z,54.03
2023-04-09T01:37:52.904Z,56.42
2023-04-09T01:38:53.044Z,57.73
2023-04-09T01:39:52.901Z,54.17
2023-04-09T01:40:52.886Z,54.07
2023-04-09T01:41:52.862Z,54.13
2023-04-09T01:42:52.899Z,54.60
2023-04-09T01:43:52.868Z,55.21
2023-04-09T01:44:52.839Z,56.22
2023-04-09T01:45:52.878Z,54.48
2023-04-09T01:46:52.842Z,54.44
2023-04-09T01:47:52.916Z,54.28
2023-04-09T01:48:53.027Z,55.49
2023-04-09T01:49:52.821Z,53.94
2023-04-09T01:50:52.824Z,54.19
2023-04-09T01:51:52.801Z,55.12
2023-04-09T01:52:52.780Z,53.82
2023-04-09T01:53:52.787Z,53.76
2023-04-09T01:54:53.209Z,53.80
2023-04-09T01:55:52.782Z,54.41
2023-04-09T01:56:52.758Z,58.03
2023-04-09T01:57:52.781Z,54.30
2023-04-09T01:58:52.922Z,53.96
2023-04-09T01:59:52.738Z,54.24
2023-04-09T02:00:52.847Z,54.29
2023-04-09T02:01:52.843Z,54.56
2023-04-09T02:02:52.871Z,54.24
2023-04-09T02:03:52.887Z,55.44
2023-04-09T02:04:52.703Z,53.68
2023-04-09T02:05:52.700Z,54.11
2023-04-09T02:06:52.763Z,53.96
2023-04-09T02:07:52.681Z,54.01
2023-04-09T02:08:52.969Z,53.93
2023-04-09T02:09:52.684Z,53.84
2023-04-09T02:10:52.688Z,53.98
2023-04-09T02:11:52.643Z,54.11
2023-04-09T02:12:52.704Z,55.69
2023-04-09T02:13:52.649Z,53.83
2023-04-09T02:14:52.661Z,54.74
2023-04-09T02:15:52.681Z,54.74
2023-04-09T02:16:52.631Z,54.28
2023-04-09T02:17:52.635Z,54.05
2023-04-09T02:18:52.758Z,54.00
2023-04-09T02:19:52.600Z,53.86
2023-04-09T02:20:52.607Z,53.80
2023-04-09T02:21:52.591Z,53.98
2023-04-09T02:22:52.608Z,54.26
2023-04-09T02:23:52.585Z,54.09
2023-04-09T02:24:52.628Z,54.23
2023-04-09T02:25:52.568Z,54.44
2023-04-09T02:26:52.569Z,54.14
2023-04-09T02:27:52.539Z,53.89
2023-04-09T02:28:52.776Z,53.90
2023-04-09T02:29:52.535Z,53.90
2023-04-09T02:30:52.563Z,54.41
2023-04-09T02:31:52.506Z,54.50
2023-04-09T02:32:52.550Z,55.65
2023-04-09T02:33:52.522Z,54.86
2023-04-09T02:34:52.523Z,54.82
2023-04-09T02:35:52.515Z,54.10
2023-04-09T02:36:52.522Z,54.03
2023-04-09T02:37:52.498Z,54.21
2023-04-09T02:38:52.667Z,54.52
2023-04-09T02:39:52.453Z,54.01
2023-04-09T02:40:52.438Z,54.50
2023-04-09T02:41:52.463Z,54.29
2023-04-09T02:42:52.484Z,53.98
2023-04-09T02:43:52.426Z,54.54
2023-04-09T02:44:52.422Z,55.41
2023-04-09T02:45:52.439Z,55.46
2023-04-09T02:46:52.434Z,54.45
2023-04-09T02:47:52.429Z,54.25
2023-04-09T02:48:52.831Z,54.06
2023-04-09T02:49:52.408Z,54.11
2023-04-09T02:50:52.398Z,54.29
2023-04-09T02:51:52.382Z,56.39
2023-04-09T02:52:52.357Z,53.89
2023-04-09T02:53:52.381Z,54.25
2023-04-09T02:54:52.411Z,54.33
2023-04-09T02:55:52.348Z,53.94
2023-04-09T02:56:52.345Z,55.44
2023-04-09T02:57:52.346Z,54.97
2023-04-09T02:58:52.516Z,56.04
2023-04-09T02:59:52.343Z,56.91
2023-04-09T03:00:52.800Z,59.65
2023-04-09T03:01:52.377Z,59.08
2023-04-09T03:02:52.437Z,57.78
2023-04-09T03:03:52.415Z,56.85
2023-04-09T03:04:52.304Z,56.49
2023-04-09T03:05:52.268Z,56.10
2023-04-09T03:06:52.293Z,55.67
2023-04-09T03:07:52.259Z,55.48
2023-04-09T03:08:52.485Z,55.18
2023-04-09T03:09:52.257Z,55.85
2023-04-09T03:10:52.265Z,55.80
2023-04-09T03:11:52.236Z,56.09
2023-04-09T03:12:52.276Z,56.30
2023-04-09T03:13:52.228Z,56.78
2023-04-09T03:14:52.196Z,57.72
2023-04-09T03:15:52.283Z,56.49
2023-04-09T03:16:52.195Z,57.55
2023-04-09T03:17:52.240Z,57.22
2023-04-09T03:18:52.457Z,56.79
2023-04-09T03:19:52.182Z,56.74
2023-04-09T03:20:52.179Z,56.54
2023-04-09T03:21:52.207Z,56.52
2023-04-09T03:22:52.186Z,56.42
2023-04-09T03:23:52.135Z,55.75
2023-04-09T03:24:52.202Z,55.41
2023-04-09T03:25:52.159Z,55.62
2023-04-09T03:26:52.141Z,55.49
2023-04-09T03:27:52.098Z,57.18
2023-04-09T03:28:52.271Z,57.13
2023-04-09T03:29:52.125Z,56.81
2023-04-09T03:30:52.138Z,56.86
2023-04-09T03:31:52.088Z,56.66
2023-04-09T03:32:52.140Z,56.51
2023-04-09T03:33:52.065Z,57.16
2023-04-09T03:34:52.083Z,57.13
2023-04-09T03:35:52.131Z,56.92
2023-04-09T03:36:52.114Z,57.60
2023-04-09T03:37:52.067Z,56.92
2023-04-09T03:38:52.155Z,56.99
2023-04-09T03:39:52.037Z,57.15
2023-04-09T03:40:52.025Z,58.71
2023-04-09T03:41:52.053Z,56.05
2023-04-09T03:42:52.034Z,59.11
2023-04-09T03:43:52.026Z,59.10
2023-04-09T03:44:52.017Z,57.79
2023-04-09T03:45:51.999Z,57.37
2023-04-09T03:46:52.037Z,58.55
2023-04-09T03:47:52.045Z,59.16
2023-04-09T03:48:52.222Z,59.87
2023-04-09T03:49:51.972Z,57.34
2023-04-09T03:50:51.941Z,56.77
2023-04-09T03:51:51.973Z,57.15
2023-04-09T03:52:52.015Z,57.20
2023-04-09T03:53:51.958Z,57.08
2023-04-09T03:54:51.996Z,57.02
2023-04-09T03:55:51.974Z,57.28
2023-04-09T03:56:51.919Z,57.56
2023-04-09T03:57:51.921Z,57.75
2023-04-09T03:58:52.190Z,57.93
2023-04-09T03:59:51.889Z,57.91
2023-04-09T04:00:51.917Z,57.60
2023-04-09T04:01:51.935Z,57.32
2023-04-09T04:02:52.078Z,57.76
2023-04-09T04:03:51.920Z,57.35
2023-04-09T04:04:51.915Z,57.67
2023-04-09T04:05:51.829Z,57.14
2023-04-09T04:06:52.327Z,57.25
2023-04-09T04:07:51.836Z,57.72
2023-04-09T04:08:51.971Z,58.23
2023-04-09T04:09:51.796Z,57.85
2023-04-09T04:10:51.823Z,58.26
2023-04-09T04:11:51.810Z,57.95
2023-04-09T04:12:51.844Z,58.14
2023-04-09T04:13:51.770Z,59.76
2023-04-09T04:14:51.792Z,58.35
2023-04-09T04:15:51.783Z,59.37
2023-04-09T04:16:51.762Z,57.59
2023-04-09T04:17:51.781Z,57.01
2023-04-09T04:18:52.007Z,57.65
2023-04-09T04:19:51.765Z,57.35
2023-04-09T04:20:51.719Z,56.90
2023-04-09T04:21:51.717Z,57.06
2023-04-09T04:22:51.708Z,57.00
2023-04-09T04:23:51.712Z,57.02
2023-04-09T04:24:51.757Z,58.06
2023-04-09T04:25:51.700Z,57.43
2023-04-09T04:26:51.701Z,56.52
2023-04-09T04:27:51.669Z,56.09
2023-04-09T04:28:51.848Z,56.75
2023-04-09T04:29:51.686Z,57.79
2023-04-09T04:30:51.702Z,58.92
2023-04-09T04:31:51.668Z,57.56
2023-04-09T04:32:51.658Z,56.69
2023-04-09T04:33:51.624Z,56.40
2023-04-09T04:34:51.663Z,56.97
2023-04-09T04:35:51.690Z,59.41
2023-04-09T04:36:51.670Z,57.89
2023-04-09T04:37:51.606Z,56.50
2023-04-09T04:38:51.799Z,59.07
2023-04-09T04:39:51.592Z,57.31
2023-04-09T04:40:51.612Z,56.91
2023-04-09T04:41:51.585Z,57.27
2023-04-09T04:42:51.599Z,56.58
2023-04-09T04:43:51.564Z,55.39
2023-04-09T04:44:51.562Z,55.41
2023-04-09T04:45:53.539Z,55.39
2023-04-09T04:46:51.541Z,55.86
2023-04-09T04:47:51.588Z,55.92
2023-04-09T04:48:51.748Z,55.55
2023-04-09T04:49:51.549Z,54.37
2023-04-09T04:50:51.497Z,54.74
2023-04-09T04:51:51.527Z,54.35
2023-04-09T04:52:51.497Z,55.18
2023-04-09T04:53:51.484Z,56.83
2023-04-09T04:54:51.522Z,55.65
2023-04-09T04:55:51.472Z,56.49
2023-04-09T04:56:51.462Z,55.91
2023-04-09T04:57:51.477Z,55.80
2023-04-09T04:58:51.650Z,56.54
2023-04-09T04:59:51.449Z,56.03
2023-04-09T05:00:51.500Z,57.64
2023-04-09T05:01:51.484Z,57.04
2023-04-09T05:02:51.589Z,56.50
2023-04-09T05:03:51.474Z,56.93
2023-04-09T05:04:51.397Z,56.05
2023-04-09T05:05:51.445Z,56.72
2023-04-09T05:06:51.432Z,54.85
2023-04-09T05:07:51.407Z,54.92
2023-04-09T05:08:51.537Z,56.32
2023-04-09T05:09:51.354Z,57.33
2023-04-09T05:10:51.386Z,56.18
2023-04-09T05:11:51.381Z,55.80
2023-04-09T05:12:51.672Z,55.77
2023-04-09T05:13:51.383Z,54.91
2023-04-09T05:14:51.345Z,57.09
2023-04-09T05:15:51.326Z,55.54
2023-04-09T05:16:51.456Z,55.48
2023-04-09T05:17:51.351Z,56.11
2023-04-09T05:18:51.444Z,55.28
2023-04-09T05:19:51.306Z,55.81
2023-04-09T05:20:51.297Z,54.76
2023-04-09T05:21:51.301Z,54.88
2023-04-09T05:22:51.295Z,54.96
2023-04-09T05:23:51.306Z,55.49
2023-04-09T05:24:51.302Z,56.24
2023-04-09T05:25:51.260Z,55.12
2023-04-09T05:26:51.246Z,55.54
2023-04-09T05:27:51.275Z,55.05
2023-04-09T05:28:51.515Z,54.99
2023-04-09T05:29:51.218Z,54.72
2023-04-09T05:30:51.361Z,55.38
2023-04-09T05:31:51.257Z,54.73
2023-04-09T05:32:51.253Z,55.85
2023-04-09T05:33:51.220Z,55.35
2023-04-09T05:34:51.197Z,56.05
2023-04-09T05:35:51.249Z,55.28
2023-04-09T05:36:51.245Z,56.25
2023-04-09T05:37:51.189Z,54.85
2023-04-09T05:38:51.436Z,55.15
2023-04-09T05:39:51.165Z,55.40
2023-04-09T05:40:51.170Z,56.75
2023-04-09T05:41:51.168Z,54.79
2023-04-09T05:42:51.177Z,55.23
2023-04-09T05:43:51.284Z,54.85
2023-04-09T05:44:51.123Z,54.91
2023-04-09T05:45:51.166Z,54.68
2023-04-09T05:46:51.116Z,54.65
2023-04-09T05:47:51.174Z,54.86
2023-04-09T05:48:51.365Z,54.90
2023-04-09T05:49:51.104Z,56.10
2023-04-09T05:50:55.089Z,55.80
2023-04-09T05:51:51.080Z,55.41
2023-04-09T05:52:51.048Z,55.79
2023-04-09T05:53:51.441Z,56.24
2023-04-09T05:54:51.105Z,58.97
2023-04-09T05:55:51.067Z,54.81
2023-04-09T05:56:51.059Z,55.56
2023-04-09T05:57:51.073Z,57.15
2023-04-09T05:58:51.033Z,55.33
2023-04-09T05:59:51.019Z,55.02
2023-04-09T06:00:51.077Z,56.38
2023-04-09T06:01:51.043Z,54.63
2023-04-09T06:02:51.069Z,56.15
2023-04-09T06:03:51.441Z,56.97
2023-04-09T06:04:51.079Z,55.50
2023-04-09T06:05:50.976Z,57.36
2023-04-09T06:06:51.018Z,57.50
2023-04-09T06:07:50.958Z,57.14
2023-04-09T06:08:50.964Z,55.35
2023-04-09T06:09:50.960Z,58.59
2023-04-09T06:10:50.938Z,56.23
2023-04-09T06:11:50.954Z,55.82
2023-04-09T06:12:50.959Z,55.53
2023-04-09T06:13:51.159Z,57.62
2023-04-09T06:14:50.911Z,58.13
2023-04-09T06:15:50.957Z,55.09
2023-04-09T06:16:50.925Z,55.56
2023-04-09T06:17:50.939Z,55.61
2023-04-09T06:18:51.144Z,57.79
2023-04-09T06:19:50.888Z,57.88
2023-04-09T06:20:50.882Z,56.80
2023-04-09T06:21:50.859Z,54.90
2023-04-09T06:22:50.873Z,56.26
2023-04-09T06:23:51.104Z,56.23
2023-04-09T06:24:50.907Z,54.88
2023-04-09T06:25:50.825Z,55.15
2023-04-09T06:26:50.842Z,55.00
2023-04-09T06:27:50.832Z,54.11
2023-04-09T06:28:50.822Z,54.45
2023-04-09T06:29:50.835Z,54.96
2023-04-09T06:30:50.856Z,54.82
2023-04-09T06:31:50.850Z,54.44
2023-04-09T06:32:54.597Z,54.77
2023-04-09T06:33:51.177Z,55.86
2023-04-09T06:34:50.785Z,58.35
2023-04-09T06:35:50.804Z,58.04
2023-04-09T06:36:50.855Z,58.33
2023-04-09T06:37:50.741Z,58.91
2023-04-09T06:38:50.746Z,58.05
2023-04-09T06:40:00.618Z,58.96
2023-04-09T06:40:51.755Z,59.62
2023-04-09T06:41:50.724Z,55.84
2023-04-09T06:42:50.778Z,54.30
2023-04-09T06:43:51.066Z,55.93
2023-04-09T06:44:50.702Z,55.22
2023-04-09T06:45:50.697Z,58.83
2023-04-09T06:46:50.823Z,55.53
2023-04-09T06:47:50.728Z,54.02
2023-04-09T06:48:50.785Z,55.41
2023-04-09T06:49:50.664Z,54.38
2023-04-09T06:50:50.658Z,56.03
2023-04-09T06:51:50.677Z,56.75
2023-04-09T06:52:50.645Z,58.31
2023-04-09T06:53:50.866Z,54.02
2023-04-09T06:54:50.670Z,54.84
2023-04-09T06:55:50.877Z,54.74
2023-04-09T06:56:50.602Z,57.48
2023-04-09T06:57:50.642Z,56.58
2023-04-09T06:58:50.627Z,54.81
2023-04-09T06:59:50.638Z,54.59
2023-04-09T07:00:50.629Z,55.44
2023-04-09T07:01:53.315Z,55.16
2023-04-09T07:02:50.786Z,57.92
2023-04-09T07:03:50.791Z,54.99
2023-04-09T07:04:50.623Z,54.99
2023-04-09T07:05:50.547Z,55.29
2023-04-09T07:06:50.585Z,55.51
2023-04-09T07:07:50.547Z,56.21
2023-04-09T07:08:50.890Z,56.65
2023-04-09T07:09:50.538Z,55.69
2023-04-09T07:10:50.508Z,58.90
2023-04-09T07:11:50.538Z,55.59
2023-04-09T07:12:50.557Z,55.89
2023-04-09T07:13:50.561Z,54.74
2023-04-09T07:14:50.505Z,54.77
2023-04-09T07:15:50.516Z,56.97
2023-04-09T07:16:50.497Z,55.15
2023-04-09T07:17:50.472Z,55.73
2023-04-09T07:18:50.735Z,56.07
2023-04-09T07:19:50.437Z,55.17
2023-04-09T07:20:50.464Z,56.09
2023-04-09T07:21:50.474Z,54.80
2023-04-09T07:22:50.416Z,54.50
2023-04-09T07:23:50.599Z,54.42
2023-04-09T07:24:50.476Z,56.18
2023-04-09T07:25:50.399Z,57.24
2023-04-09T07:26:52.043Z,54.71
2023-04-09T07:27:50.387Z,56.30
2023-04-09T07:28:50.437Z,56.25
2023-04-09T07:29:50.351Z,54.88
2023-04-09T07:30:50.413Z,57.84
2023-04-09T07:31:50.393Z,56.78
2023-04-09T07:32:50.379Z,57.47
2023-04-09T07:33:50.474Z,58.14
2023-04-09T07:34:50.351Z,57.19
2023-04-09T07:35:50.364Z,55.96
2023-04-09T07:36:50.352Z,56.09
2023-04-09T07:37:50.314Z,56.48
2023-04-09T07:38:50.367Z,55.85
2023-04-09T07:39:50.288Z,53.85
2023-04-09T07:40:50.282Z,56.13
2023-04-09T07:41:50.289Z,56.71
2023-04-09T07:42:50.301Z,55.31
2023-04-09T07:43:50.270Z,59.61
2023-04-09T07:44:50.258Z,55.22
2023-04-09T07:45:50.249Z,54.60
2023-04-09T07:46:50.343Z,56.34
2023-04-09T07:47:50.280Z,57.76
2023-04-09T07:48:50.609Z,56.67
2023-04-09T07:49:50.245Z,56.25
2023-04-09T07:50:50.220Z,57.62
2023-04-09T07:51:50.218Z,58.53
2023-04-09T07:52:50.189Z,61.18
2023-04-09T07:53:50.213Z,59.59
2023-04-09T07:54:50.231Z,58.53
2023-04-09T07:55:50.173Z,60.22
2023-04-09T07:56:50.160Z,58.53
2023-04-09T07:57:50.186Z,60.31
2023-04-09T07:58:50.411Z,59.03
2023-04-09T07:59:50.145Z,59.52
2023-04-09T08:00:50.193Z,61.36
2023-04-09T08:01:50.289Z,55.79
2023-04-09T08:02:50.259Z,54.43
2023-04-09T08:03:50.351Z,58.03
2023-04-09T08:04:50.210Z,54.90
2023-04-09T08:05:50.101Z,55.28
2023-04-09T08:06:50.164Z,56.06
2023-04-09T08:07:50.128Z,55.45
2023-04-09T08:08:50.238Z,55.26
2023-04-09T08:09:50.076Z,57.23
2023-04-09T08:10:50.067Z,58.43
2023-04-09T08:11:50.068Z,55.80
2023-04-09T08:12:50.130Z,55.70
2023-04-09T08:13:50.059Z,59.07
2023-04-09T08:14:50.047Z,55.01
2023-04-09T08:15:50.040Z,55.39
2023-04-09T08:16:50.303Z,54.99
2023-04-09T08:17:50.063Z,55.59
2023-04-09T08:18:50.068Z,58.08
2023-04-09T08:19:50.010Z,56.52
2023-04-09T08:20:50.022Z,59.73
2023-04-09T08:21:50.013Z,55.94
2023-04-09T08:22:49.985Z,55.84
2023-04-09T08:23:49.980Z,56.56
2023-04-09T08:24:50.066Z,54.50
2023-04-09T08:25:49.974Z,57.60
2023-04-09T08:26:49.960Z,56.86
2023-04-09T08:27:49.963Z,57.41
2023-04-09T08:28:49.974Z,58.16
2023-04-09T08:29:49.957Z,57.84
2023-04-09T08:30:49.979Z,58.51
2023-04-09T08:31:49.979Z,57.42
2023-04-09T08:32:49.974Z,57.29
2023-04-09T08:33:49.902Z,55.41
2023-04-09T08:34:49.910Z,56.42
2023-04-09T08:35:49.881Z,57.31
2023-04-09T08:36:55.566Z,53.91
2023-04-09T08:37:49.860Z,54.24
2023-04-09T08:38:49.911Z,53.92
2023-04-09T08:39:49.873Z,54.31
2023-04-09T08:40:49.869Z,54.62
2023-04-09T08:41:49.866Z,56.62
2023-04-09T08:42:49.889Z,55.10
2023-04-09T08:43:57.615Z,55.21
2023-04-09T08:44:50.812Z,55.10
2023-04-09T08:45:49.875Z,54.49
2023-04-09T08:46:49.810Z,54.20
2023-04-09T08:47:49.862Z,55.06
2023-04-09T08:48:50.044Z,56.93
2023-04-09T08:49:49.806Z,54.51
2023-04-09T08:50:49.815Z,56.78
2023-04-09T08:51:49.781Z,59.41
2023-04-09T08:52:49.775Z,57.69
2023-04-09T08:53:49.782Z,57.57
2023-04-09T08:54:49.851Z,60.38
2023-04-09T08:55:49.767Z,58.60
2023-04-09T08:56:49.799Z,56.68
2023-04-09T08:57:49.747Z,58.27
2023-04-09T08:58:49.748Z,59.48
2023-04-09T08:59:49.706Z,58.24
2023-04-09T09:00:49.755Z,56.71
2023-04-09T09:01:49.791Z,55.05
2023-04-09T09:02:49.819Z,55.02
2023-04-09T09:03:49.841Z,55.44
2023-04-09T09:04:49.712Z,57.59
2023-04-09T09:05:49.693Z,56.94
2023-04-09T09:06:49.719Z,55.90
2023-04-09T09:07:49.662Z,56.43
2023-04-09T09:08:49.679Z,53.80
2023-04-09T09:09:49.650Z,54.43
2023-04-09T09:10:49.677Z,55.26
2023-04-09T09:11:49.634Z,55.11
2023-04-09T09:12:49.659Z,56.99
2023-04-09T09:13:49.618Z,57.49
2023-04-09T09:14:49.623Z,56.53
2023-04-09T09:15:49.623Z,57.57
2023-04-09T09:16:49.659Z,53.63
2023-04-09T09:17:49.633Z,55.19
2023-04-09T09:18:50.196Z,53.37
2023-04-09T09:19:49.589Z,54.18
2023-04-09T09:20:49.577Z,56.30
2023-04-09T09:21:49.579Z,53.65
2023-04-09T09:22:49.576Z,54.16
2023-04-09T09:23:50.598Z,57.58
2023-04-09T09:24:50.451Z,54.99
2023-04-09T09:25:49.549Z,56.74
2023-04-09T09:26:49.580Z,53.93
2023-04-09T09:27:49.522Z,55.47
2023-04-09T09:28:49.509Z,53.94
2023-04-09T09:29:49.854Z,55.39
2023-04-09T09:30:49.595Z,54.44
2023-04-09T09:31:49.605Z,54.72
2023-04-09T09:32:49.535Z,55.07
2023-04-09T09:33:49.494Z,56.11
2023-04-09T09:34:49.470Z,54.18
2023-04-09T09:35:49.616Z,55.30
2023-04-09T09:36:49.486Z,53.56
2023-04-09T09:37:49.447Z,54.93
2023-04-09T09:38:49.440Z,54.09
2023-04-09T09:39:49.452Z,53.36
2023-04-09T09:40:49.415Z,55.44
2023-04-09T09:41:49.450Z,56.64
2023-04-09T09:42:49.424Z,56.43
2023-04-09T09:43:49.425Z,55.45
2023-04-09T09:44:49.397Z,54.58
2023-04-09T09:45:49.473Z,54.68
2023-04-09T09:46:49.410Z,54.22
2023-04-09T09:47:49.447Z,54.26
2023-04-09T09:48:49.478Z,53.96
2023-04-09T09:49:49.380Z,55.70
2023-04-09T09:50:49.344Z,55.74
2023-04-09T09:51:49.374Z,57.95
2023-04-09T09:52:49.358Z,54.46
2023-04-09T09:53:49.971Z,53.98
2023-04-09T09:54:49.327Z,55.91
2023-04-09T09:55:49.339Z,53.74
2023-04-09T09:56:49.319Z,53.32
2023-04-09T09:57:49.311Z,54.76
2023-04-09T09:58:49.308Z,54.29
2023-04-09T09:59:49.331Z,55.79
2023-04-09T10:00:49.278Z,59.08
2023-04-09T10:01:49.304Z,58.42
2023-04-09T10:02:49.365Z,59.67
2023-04-09T10:03:49.256Z,58.66
2023-04-09T10:04:49.353Z,55.08
2023-04-09T10:05:49.295Z,56.35
2023-04-09T10:06:50.279Z,55.91
2023-04-09T10:07:49.235Z,55.05
2023-04-09T10:08:49.407Z,53.06
2023-04-09T10:09:49.292Z,54.28
2023-04-09T10:10:49.214Z,55.39
2023-04-09T10:11:49.290Z,52.59
2023-04-09T10:12:49.198Z,56.23
2023-04-09T10:13:49.606Z,53.57
2023-04-09T10:14:51.723Z,54.62
2023-04-09T10:15:49.248Z,53.57
2023-04-09T10:16:49.175Z,54.81
2023-04-09T10:17:49.220Z,53.77
2023-04-09T10:18:49.131Z,56.14
2023-04-09T10:19:49.152Z,54.63
2023-04-09T10:20:49.141Z,56.56
2023-04-09T10:21:49.132Z,55.25
2023-04-09T10:22:49.117Z,54.01
2023-04-09T10:23:49.182Z,53.33
2023-04-09T10:24:49.128Z,54.77
2023-04-09T10:25:49.095Z,55.20
2023-04-09T10:26:49.102Z,54.14
2023-04-09T10:27:49.138Z,55.39
2023-04-09T10:28:49.083Z,57.20
2023-04-09T10:29:49.130Z,56.11
2023-04-09T10:30:49.124Z,56.18
2023-04-09T10:31:49.077Z,54.38
2023-04-09T10:32:49.104Z,55.10
2023-04-09T10:33:49.037Z,56.42
2023-04-09T10:34:49.025Z,56.13
2023-04-09T10:35:49.485Z,55.94
2023-04-09T10:36:49.017Z,55.77
2023-04-09T10:37:49.000Z,54.52
2023-04-09T10:38:49.010Z,53.78
2023-04-09T10:39:49.010Z,55.07
2023-04-09T10:40:48.992Z,54.80
2023-04-09T10:41:49.051Z,55.28
2023-04-09T10:42:48.982Z,56.09
2023-04-09T10:43:48.992Z,55.30
2023-04-09T10:44:48.963Z,54.47
2023-04-09T10:45:48.983Z,54.31
2023-04-09T10:46:49.067Z,58.36
2023-04-09T10:47:49.028Z,54.50
2023-04-09T10:48:48.968Z,56.94
2023-04-09T10:49:48.937Z,55.50
2023-04-09T10:50:48.940Z,54.54
2023-04-09T10:51:48.911Z,55.11
2023-04-09T10:52:48.933Z,55.11
2023-04-09T10:53:48.926Z,54.95
2023-04-09T10:54:48.904Z,54.19
2023-04-09T10:55:48.882Z,55.52
2023-04-09T10:56:48.893Z,54.68
2023-04-09T10:57:48.906Z,54.46
2023-04-09T10:58:48.874Z,53.38
2023-04-09T10:59:48.932Z,53.18
2023-04-09T11:00:48.857Z,55.06
2023-04-09T11:01:48.881Z,55.18
2023-04-09T11:02:49.071Z,54.33
2023-04-09T11:03:48.878Z,54.25
2023-04-09T11:04:48.845Z,54.07
2023-04-09T11:05:48.854Z,54.98
2023-04-09T11:06:48.806Z,55.82
2023-04-09T11:07:48.807Z,56.42
2023-04-09T11:08:48.843Z,56.25
2023-04-09T11:09:48.770Z,54.56
2023-04-09T11:10:51.193Z,55.51
2023-04-09T11:11:48.811Z,54.05
2023-04-09T11:12:48.754Z,53.28
2023-04-09T11:13:48.765Z,52.58
2023-04-09T11:14:48.751Z,56.81
2023-04-09T11:15:58.452Z,54.14
2023-04-09T11:16:48.828Z,53.82
2023-04-09T11:17:48.797Z,56.43
2023-04-09T11:18:48.710Z,55.24
2023-04-09T11:19:48.705Z,54.14
2023-04-09T11:20:48.722Z,52.73
2023-04-09T11:21:48.711Z,54.80
2023-04-09T11:22:48.694Z,55.21
2023-04-09T11:23:48.746Z,55.23
2023-04-09T11:24:48.696Z,55.67
2023-04-09T11:25:48.655Z,56.78
2023-04-09T11:26:48.659Z,53.99
2023-04-09T11:27:48.656Z,55.51
2023-04-09T11:28:48.645Z,58.46
2023-04-09T11:29:48.679Z,55.69
2023-04-09T11:30:48.633Z,55.05
2023-04-09T11:31:48.652Z,56.22
2023-04-09T11:32:48.668Z,57.23
2023-04-09T11:33:48.605Z,54.97
2023-04-09T11:34:48.654Z,54.54
2023-04-09T11:35:48.754Z,53.34
2023-04-09T11:36:48.603Z,54.87
2023-04-09T11:37:48.584Z,55.77
2023-04-09T11:38:48.580Z,54.99
2023-04-09T11:39:48.585Z,55.47
2023-04-09T11:40:49.057Z,55.34
2023-04-09T11:41:48.865Z,57.85
2023-04-09T11:42:48.561Z,56.19
2023-04-09T11:43:48.536Z,54.81
2023-04-09T11:44:48.559Z,56.19
2023-04-09T11:45:48.871Z,55.99
2023-04-09T11:46:48.572Z,55.83
2023-04-09T11:47:48.593Z,55.76
2023-04-09T11:48:48.493Z,57.28
2023-04-09T11:49:48.518Z,54.30
2023-04-09T11:50:48.486Z,54.69
2023-04-09T11:51:48.469Z,56.45
2023-04-09T11:52:48.465Z,55.16
2023-04-09T11:53:48.516Z,53.31
2023-04-09T11:54:48.456Z,56.08
2023-04-09T11:55:48.456Z,55.26
2023-04-09T11:56:48.445Z,53.99
2023-04-09T11:57:48.450Z,55.73
2023-04-09T11:58:48.481Z,55.04
2023-04-09T11:59:48.473Z,54.05
2023-04-09T12:00:48.426Z,54.71
2023-04-09T12:01:48.602Z,53.76
2023-04-09T12:02:48.605Z,54.20
2023-04-09T12:03:48.674Z,55.48
2023-04-09T12:04:48.492Z,53.51
2023-04-09T12:05:50.616Z,54.61
2023-04-09T12:06:48.379Z,52.59
2023-04-09T12:07:55.486Z,53.00
2023-04-09T12:08:49.488Z,54.46
2023-04-09T12:09:48.374Z,54.08
2023-04-09T12:10:48.354Z,53.21
2023-04-09T12:11:48.358Z,55.26
2023-04-09T12:12:48.340Z,54.53
2023-04-09T12:13:48.342Z,55.62
2023-04-09T12:14:48.345Z,55.15
2023-04-09T12:15:48.392Z,54.63
2023-04-09T12:16:48.362Z,52.91
2023-04-09T12:17:48.375Z,53.79
2023-04-09T12:18:48.323Z,57.09
2023-04-09T12:19:48.277Z,55.19
2023-04-09T12:20:48.312Z,53.85
2023-04-09T12:21:48.265Z,54.67
2023-04-09T12:22:48.276Z,54.27
2023-04-09T12:23:48.307Z,54.46
2023-04-09T12:24:48.252Z,54.84
2023-04-09T12:25:48.290Z,55.98
2023-04-09T12:26:48.240Z,55.03
2023-04-09T12:27:48.232Z,52.92
2023-04-09T12:28:48.219Z,52.88
2023-04-09T12:29:48.260Z,56.06
2023-04-09T12:30:48.250Z,54.53
2023-04-09T12:31:48.254Z,55.92
2023-04-09T12:32:48.298Z,53.76
2023-04-09T12:33:48.184Z,53.40
2023-04-09T12:34:48.168Z,52.76
2023-04-09T12:35:48.200Z,54.55
2023-04-09T12:36:48.226Z,54.35
2023-04-09T12:37:48.186Z,56.52
2023-04-09T12:38:48.189Z,53.00
2023-04-09T12:39:48.204Z,52.20
2023-04-09T12:40:48.149Z,53.45
2023-04-09T12:41:48.530Z,52.62
2023-04-09T12:42:48.141Z,52.55
2023-04-09T12:43:48.134Z,52.84
2023-04-09T12:44:48.126Z,57.22
2023-04-09T12:45:48.169Z,54.44
2023-04-09T12:46:48.097Z,55.00
2023-04-09T12:47:48.172Z,56.49
2023-04-09T12:48:48.083Z,56.67
2023-04-09T12:49:48.085Z,54.25
2023-04-09T12:50:48.062Z,55.61
2023-04-09T12:51:48.140Z,55.49
2023-04-09T12:52:48.090Z,57.41